createdAt,value
2023-03-29T00:00:29.502Z,101131.05
2023-03-29T00:03:01.966Z,101127.00
2023-03-29T00:05:16.930Z,101126.28
2023-03-29T00:07:33.347Z,101119.83
2023-03-29T00:09:45.964Z,101122.52
2023-03-29T00:11:59.625Z,101119.64
2023-03-29T00:14:12.586Z,101122.23
2023-03-29T00:16:25.330Z,101122.39
2023-03-29T00:18:37.988Z,101120.57
2023-03-29T00:20:57.857Z,101120.70
2023-03-29T00:23:10.728Z,101118.77
2023-03-29T00:25:23.445Z,101118.85
2023-03-29T00:27:36.116Z,101120.45
2023-03-29T00:29:48.818Z,101121.70
2023-03-29T00:32:01.445Z,101123.41
2023-03-29T00:34:13.983Z,101125.14
2023-03-29T00:36:27.749Z,101125.04
2023-03-29T00:38:40.461Z,101120.49
2023-03-29T00:40:53.048Z,101125.25
2023-03-29T00:43:08.693Z,101123.39
2023-03-29T00:45:25.504Z,101121.52
2023-03-29T00:47:42.837Z,101120.64
2023-03-29T00:50:00.221Z,101110.90
2023-03-29T00:52:16.063Z,101109.70
2023-03-29T00:54:28.602Z,101104.72
2023-03-29T00:56:43.962Z,101109.64
2023-03-29T00:59:02.227Z,101105.35
2023-03-29T01:01:36.064Z,101111.04
2023-03-29T01:03:56.623Z,101104.30
2023-03-29T01:06:11.476Z,101101.66
2023-03-29T01:08:28.791Z,101099.63
2023-03-29T01:10:44.685Z,101097.75
2023-03-29T01:13:10.070Z,101090.77
2023-03-29T01:15:26.558Z,101088.78
2023-03-29T01:17:40.627Z,101084.74
2023-03-29T01:20:02.308Z,101086.59
2023-03-29T01:22:38.736Z,101080.73
2023-03-29T01:25:13.497Z,101083.22
2023-03-29T01:27:49.951Z,101082.28
2023-03-29T01:30:08.881Z,101080.89
2023-03-29T01:32:38.941Z,101079.94
2023-03-29T01:34:58.692Z,101080.42
2023-03-29T01:37:19.861Z,101080.00
2023-03-29T01:39:34.174Z,101082.13
2023-03-29T01:42:32.258Z,101077.15
2023-03-29T01:44:55.453Z,101073.36
2023-03-29T01:47:19.584Z,101070.24
2023-03-29T01:49:40.067Z,101071.34
2023-03-29T01:52:01.837Z,101066.42
2023-03-29T01:54:25.631Z,101067.05
2023-03-29T01:56:42.187Z,101066.41
2023-03-29T01:59:03.897Z,101066.59
2023-03-29T02:01:21.328Z,101069.54
2023-03-29T02:03:42.232Z,101071.13
2023-03-29T02:05:57.074Z,101068.77
2023-03-29T02:08:12.783Z,101062.58
2023-03-29T02:10:26.825Z,101062.61
2023-03-29T02:12:39.393Z,101066.75
2023-03-29T02:14:52.007Z,101068.37
2023-03-29T02:17:25.771Z,101063.99
2023-03-29T02:19:39.177Z,101063.94
2023-03-29T02:22:07.265Z,101060.56
2023-03-29T02:24:22.374Z,101064.59
2023-03-29T02:26:36.106Z,101064.52
2023-03-29T02:28:48.727Z,101062.64
2023-03-29T02:31:29.369Z,101057.78
2023-03-29T02:33:43.451Z,101057.83
2023-03-29T02:36:04.641Z,101057.19
2023-03-29T02:38:17.806Z,101052.08
2023-03-29T02:40:33.282Z,101045.44
2023-03-29T02:42:46.713Z,101045.58
2023-03-29T02:45:00.872Z,101050.87
2023-03-29T02:47:27.402Z,101044.37
2023-03-29T02:49:40.167Z,101043.20
2023-03-29T02:51:55.996Z,101039.57
2023-03-29T02:54:17.791Z,101039.67
2023-03-29T02:56:30.660Z,101034.50
2023-03-29T02:58:43.212Z,101032.63
2023-03-29T03:00:58.655Z,101030.43
2023-03-29T03:03:13.399Z,101032.33
2023-03-29T03:05:25.987Z,101028.73
2023-03-29T03:07:40.573Z,101026.54
2023-03-29T03:09:53.200Z,101025.83
2023-03-29T03:12:06.248Z,101023.65
2023-03-29T03:14:22.760Z,101019.70
2023-03-29T03:16:36.254Z,101018.87
2023-03-29T03:18:50.844Z,101020.67
2023-03-29T03:21:04.713Z,101016.86
2023-03-29T03:23:17.720Z,101015.80
2023-03-29T03:25:30.378Z,101012.05
2023-03-29T03:27:43.549Z,101010.81
2023-03-29T03:29:56.101Z,101006.45
2023-03-29T03:32:08.738Z,101005.34
2023-03-29T03:34:21.446Z,101004.47
2023-03-29T03:36:35.402Z,100999.73
2023-03-29T03:38:47.908Z,100998.67
2023-03-29T03:41:01.462Z,100997.13
2023-03-29T03:43:14.338Z,100994.81
2023-03-29T03:45:27.021Z,100988.80
2023-03-29T03:47:39.768Z,100981.13
2023-03-29T03:49:52.567Z,100976.77
2023-03-29T03:52:05.156Z,100972.21
2023-03-29T03:54:17.782Z,100974.11
2023-03-29T03:56:30.377Z,100970.84
2023-03-29T03:58:43.726Z,100972.73
2023-03-29T04:00:56.299Z,100974.49
2023-03-29T04:03:09.106Z,100973.70
2023-03-29T04:05:22.082Z,100973.38
2023-03-29T04:07:35.777Z,100971.02
2023-03-29T04:09:48.815Z,100970.96
2023-03-29T04:12:01.640Z,100974.58
2023-03-29T04:14:14.203Z,100972.05
2023-03-29T04:16:27.553Z,100971.70
2023-03-29T04:18:40.379Z,100970.40
2023-03-29T04:20:52.999Z,100967.75
2023-03-29T04:23:05.560Z,100966.44
2023-03-29T04:25:19.111Z,100966.13
2023-03-29T04:27:32.172Z,100961.89
2023-03-29T04:29:45.150Z,100968.85
2023-03-29T04:31:57.807Z,100967.57
2023-03-29T04:34:10.580Z,100971.71
2023-03-29T04:36:23.572Z,100970.95
2023-03-29T04:38:36.154Z,100966.44
2023-03-29T04:40:50.035Z,100967.65
2023-03-29T04:43:02.621Z,100967.61
2023-03-29T04:45:18.063Z,100966.92
2023-03-29T04:47:31.227Z,100968.30
2023-03-29T04:49:43.804Z,100971.88
2023-03-29T04:51:57.074Z,100968.01
2023-03-29T04:54:10.106Z,100967.59
2023-03-29T04:56:23.131Z,100973.27
2023-03-29T04:58:35.612Z,100975.07
2023-03-29T05:00:48.248Z,100977.66
2023-03-29T05:03:00.837Z,100978.01
2023-03-29T05:05:14.239Z,100977.68
2023-03-29T05:07:26.835Z,100977.71
2023-03-29T05:09:40.748Z,100972.15
2023-03-29T05:11:53.358Z,100968.63
2023-03-29T05:14:07.367Z,100964.36
2023-03-29T05:16:20.688Z,100965.30
2023-03-29T05:18:33.363Z,100965.67
2023-03-29T05:20:47.238Z,100969.04
2023-03-29T05:22:59.814Z,100965.19
2023-03-29T05:25:13.310Z,100961.05
2023-03-29T05:27:26.227Z,100958.16
2023-03-29T05:29:38.948Z,100957.21
2023-03-29T05:31:52.532Z,100953.27
2023-03-29T05:34:07.037Z,100950.17
2023-03-29T05:36:19.842Z,100949.44
2023-03-29T05:38:35.072Z,100951.10
2023-03-29T05:40:47.625Z,100948.55
2023-03-29T05:43:02.466Z,100948.95
2023-03-29T05:45:15.359Z,100942.55
2023-03-29T05:47:28.518Z,100945.23
2023-03-29T05:49:41.108Z,100940.61
2023-03-29T05:51:56.848Z,100938.93
2023-03-29T05:54:09.477Z,100941.52
2023-03-29T05:56:22.833Z,100944.88
2023-03-29T05:58:36.319Z,100943.42
2023-03-29T06:00:50.001Z,100942.36
2023-03-29T06:03:13.676Z,100936.87
2023-03-29T06:05:32.684Z,100930.21
2023-03-29T06:07:45.965Z,100928.27
2023-03-29T06:09:58.482Z,100925.44
2023-03-29T06:12:12.157Z,100921.02
2023-03-29T06:14:24.940Z,100926.52
2023-03-29T06:16:38.068Z,100924.30
2023-03-29T06:18:51.538Z,100924.61
2023-03-29T06:21:04.663Z,100928.45
2023-03-29T06:23:18.488Z,100928.86
2023-03-29T06:25:31.801Z,100927.40
2023-03-29T06:27:46.718Z,100928.16
2023-03-29T06:30:00.549Z,100926.70
2023-03-29T06:32:13.301Z,100927.45
2023-03-29T06:34:25.883Z,100928.38
2023-03-29T06:36:38.912Z,100921.25
2023-03-29T06:38:52.407Z,100916.86
2023-03-29T06:41:12.431Z,100909.20
2023-03-29T06:43:25.077Z,100912.50
2023-03-29T06:45:38.764Z,100915.28
2023-03-29T06:47:51.872Z,100910.34
2023-03-29T06:50:04.786Z,100905.05
2023-03-29T06:52:17.301Z,100898.50
2023-03-29T06:54:29.835Z,100892.66
2023-03-29T06:56:42.491Z,100894.34
2023-03-29T06:58:55.314Z,100893.79
2023-03-29T07:01:07.932Z,100892.52
2023-03-29T07:03:23.271Z,100894.00
2023-03-29T07:05:40.982Z,100898.25
2023-03-29T07:07:56.624Z,100893.55
2023-03-29T07:10:09.464Z,100894.02
2023-03-29T07:12:22.944Z,100902.50
2023-03-29T07:14:35.570Z,100902.42
2023-03-29T07:16:48.805Z,100899.60
2023-03-29T07:19:01.676Z,100902.98
2023-03-29T07:21:14.384Z,100902.89
2023-03-29T07:23:26.965Z,100899.18
2023-03-29T07:25:39.481Z,100898.90
2023-03-29T07:27:52.177Z,100900.84
2023-03-29T07:30:10.298Z,100902.35
2023-03-29T07:32:22.932Z,100904.86
2023-03-29T07:34:35.529Z,100900.33
2023-03-29T07:36:48.110Z,100900.08
2023-03-29T07:39:01.870Z,100897.89
2023-03-29T07:41:14.410Z,100896.51
2023-03-29T07:43:27.068Z,100894.44
2023-03-29T07:45:42.775Z,100892.60
2023-03-29T07:47:59.690Z,100894.62
2023-03-29T07:50:12.384Z,100892.09
2023-03-29T07:52:27.966Z,100884.23
2023-03-29T07:54:40.515Z,100880.33
2023-03-29T07:56:53.152Z,100877.69
2023-03-29T07:59:05.707Z,100875.58
2023-03-29T08:01:19.935Z,100871.61
2023-03-29T08:03:32.759Z,100872.94
2023-03-29T08:05:45.415Z,100872.85
2023-03-29T08:07:58.102Z,100872.48
2023-03-29T08:10:13.875Z,100874.11
2023-03-29T08:12:26.530Z,100870.52
2023-03-29T08:14:39.088Z,100869.22
2023-03-29T08:16:52.475Z,100866.05
2023-03-29T08:19:05.137Z,100864.01
2023-03-29T08:21:17.690Z,100861.81
2023-03-29T08:23:30.377Z,100859.73
2023-03-29T08:25:42.962Z,100861.19
2023-03-29T08:27:55.648Z,100860.10
2023-03-29T08:30:09.486Z,100860.60
2023-03-29T08:32:22.435Z,100854.92
2023-03-29T08:34:35.565Z,100847.67
2023-03-29T08:36:48.086Z,100848.38
2023-03-29T08:39:02.825Z,100849.95
2023-03-29T08:41:55.102Z,100851.23
2023-03-29T08:44:13.874Z,100847.31
2023-03-29T08:46:51.951Z,100842.48
2023-03-29T08:49:07.777Z,100842.61
2023-03-29T08:51:31.599Z,100833.53
2023-03-29T08:53:50.661Z,100826.32
2023-03-29T08:56:08.914Z,100820.30
2023-03-29T08:58:26.558Z,100825.13
2023-03-29T09:00:44.096Z,100828.03
2023-03-29T09:03:00.155Z,100825.09
2023-03-29T09:05:28.060Z,100826.91
2023-03-29T09:07:40.686Z,100827.55
2023-03-29T09:09:53.622Z,100820.50
2023-03-29T09:12:44.684Z,100821.67
2023-03-29T09:15:11.670Z,100817.64
2023-03-29T09:18:01.565Z,100818.92
2023-03-29T09:20:36.620Z,100822.42
2023-03-29T09:23:05.146Z,100811.38
2023-03-29T09:25:26.056Z,100817.04
2023-03-29T09:27:54.212Z,100809.56
2023-03-29T09:30:19.300Z,100811.46
2023-03-29T09:32:57.658Z,100808.80
2023-03-29T09:35:32.057Z,100807.91
2023-03-29T09:37:47.364Z,100796.59
2023-03-29T09:40:05.215Z,100793.01
2023-03-29T09:42:19.847Z,100790.30
2023-03-29T09:44:48.829Z,100791.09
2023-03-29T09:47:08.518Z,100787.23
2023-03-29T09:49:26.639Z,100789.69
2023-03-29T09:51:40.920Z,100789.77
2023-03-29T09:53:56.576Z,100780.81
2023-03-29T09:56:09.185Z,100778.77
2023-03-29T09:58:27.591Z,100780.23
2023-03-29T10:00:40.648Z,100773.83
2023-03-29T10:02:56.987Z,100771.54
2023-03-29T10:05:16.247Z,100772.91
2023-03-29T10:07:39.852Z,100767.31
2023-03-29T10:09:55.107Z,100765.35
2023-03-29T10:12:08.044Z,100766.73
2023-03-29T10:14:32.589Z,100760.16
2023-03-29T10:16:46.239Z,100753.08
2023-03-29T10:18:59.115Z,100746.80
2023-03-29T10:21:18.807Z,100748.66
2023-03-29T10:23:33.979Z,100748.06
2023-03-29T10:25:46.806Z,100745.42
2023-03-29T10:28:22.697Z,100745.96
2023-03-29T10:30:37.401Z,100748.24
2023-03-29T10:32:59.644Z,100745.59
2023-03-29T10:35:24.051Z,100742.89
2023-03-29T10:37:41.487Z,100737.64
2023-03-29T10:39:54.500Z,100729.39
2023-03-29T10:42:11.654Z,100732.73
2023-03-29T10:44:32.950Z,100724.67
2023-03-29T10:46:46.463Z,100728.95
2023-03-29T10:49:06.243Z,100716.18
2023-03-29T10:51:19.956Z,100716.47
2023-03-29T10:53:34.859Z,100716.27
2023-03-29T10:55:57.156Z,100720.77
2023-03-29T10:58:29.039Z,100709.15
2023-03-29T11:00:54.484Z,100709.84
2023-03-29T11:03:28.731Z,100705.27
2023-03-29T11:05:51.842Z,100707.45
2023-03-29T11:08:22.591Z,100709.30
2023-03-29T11:11:03.909Z,100709.14
2023-03-29T11:13:35.238Z,100701.52
2023-03-29T11:16:20.758Z,100696.75
2023-03-29T11:19:03.463Z,100695.45
2023-03-29T11:21:36.564Z,100687.70
2023-03-29T11:24:02.525Z,100680.41
2023-03-29T11:26:23.305Z,100671.98
2023-03-29T11:29:01.445Z,100672.54
2023-03-29T11:31:18.373Z,100662.39
2023-03-29T11:34:20.415Z,100661.09
2023-03-29T11:36:50.463Z,100652.64
2023-03-29T11:39:32.277Z,100649.67
2023-03-29T11:41:52.637Z,100646.51
2023-03-29T11:44:24.387Z,100640.05
2023-03-29T11:46:49.356Z,100635.02
2023-03-29T11:49:14.799Z,100623.38
2023-03-29T11:51:37.440Z,100621.94
2023-03-29T11:53:56.102Z,100613.25
2023-03-29T11:56:13.694Z,100611.27
2023-03-29T11:58:31.975Z,100608.71
2023-03-29T12:00:50.915Z,100606.73
2023-03-29T12:03:15.269Z,100605.33
2023-03-29T12:05:50.772Z,100599.51
2023-03-29T12:08:16.802Z,100602.64
2023-03-29T12:10:36.356Z,100594.82
2023-03-29T12:13:07.278Z,100598.25
2023-03-29T12:15:24.864Z,100594.11
2023-03-29T12:17:43.803Z,100591.81
2023-03-29T12:20:17.951Z,100595.27
2023-03-29T12:22:31.498Z,100584.30
2023-03-29T12:24:48.665Z,100584.49
2023-03-29T12:27:10.387Z,100581.23
2023-03-29T12:29:52.364Z,100583.88
2023-03-29T12:32:37.244Z,100583.26
2023-03-29T12:35:02.314Z,100585.76
2023-03-29T12:37:40.575Z,100579.23
2023-03-29T12:40:12.356Z,100572.46
2023-03-29T12:42:25.019Z,100570.77
2023-03-29T12:44:37.620Z,100568.63
2023-03-29T12:46:58.040Z,100573.23
2023-03-29T12:49:25.542Z,100566.05
2023-03-29T12:51:42.400Z,100565.74
2023-03-29T12:54:12.677Z,100556.81
2023-03-29T12:56:40.095Z,100539.91
2023-03-29T12:59:16.383Z,100538.58
2023-03-29T13:01:32.033Z,100537.17
2023-03-29T13:03:55.328Z,100539.42
2023-03-29T13:06:13.084Z,100539.46
2023-03-29T13:08:38.457Z,100540.27
2023-03-29T13:10:54.161Z,100537.77
2023-03-29T13:13:37.217Z,100534.16
2023-03-29T13:15:50.520Z,100535.80
2023-03-29T13:18:26.083Z,100538.42
2023-03-29T13:21:01.038Z,100536.13
2023-03-29T13:23:30.269Z,100530.52
2023-03-29T13:25:58.877Z,100533.05
2023-03-29T13:28:34.387Z,100526.30
2023-03-29T13:31:21.389Z,100524.48
2023-03-29T13:33:52.894Z,100531.05
2023-03-29T13:36:14.395Z,100535.63
2023-03-29T13:38:31.814Z,100538.67
2023-03-29T13:41:24.222Z,100534.61
2023-03-29T13:43:45.852Z,100534.27
2023-03-29T13:45:58.455Z,100528.44
2023-03-29T13:48:28.432Z,100520.00
2023-03-29T13:50:53.455Z,100522.22
2023-03-29T13:53:31.115Z,100527.51
2023-03-29T13:55:48.680Z,100525.69
2023-03-29T13:58:11.208Z,100518.49
2023-03-29T14:00:41.981Z,100517.25
2023-03-29T14:03:04.045Z,100524.09
2023-03-29T14:05:21.630Z,100520.19
2023-03-29T14:07:39.425Z,100524.67
2023-03-29T14:09:53.193Z,100516.55
2023-03-29T14:12:07.945Z,100521.42
2023-03-29T14:14:25.989Z,100519.29
2023-03-29T14:16:40.933Z,100523.55
2023-03-29T14:18:54.319Z,100518.99
2023-03-29T14:21:07.632Z,100520.11
2023-03-29T14:23:23.555Z,100520.55
2023-03-29T14:25:39.509Z,100523.20
2023-03-29T14:27:52.334Z,100523.29
2023-03-29T14:30:20.285Z,100520.39
2023-03-29T14:32:33.072Z,100516.77
2023-03-29T14:34:50.386Z,100510.69
2023-03-29T14:37:03.513Z,100507.22
2023-03-29T14:39:18.301Z,100503.27
2023-03-29T14:41:34.137Z,100501.64
2023-03-29T14:43:47.285Z,100493.57
2023-03-29T14:46:05.005Z,100495.61
2023-03-29T14:48:18.072Z,100490.63
2023-03-29T14:50:32.810Z,100487.92
2023-03-29T14:52:47.567Z,100484.94
2023-03-29T14:55:02.342Z,100476.64
2023-03-29T14:57:18.432Z,100483.13
2023-03-29T14:59:43.683Z,100483.75
2023-03-29T15:01:56.642Z,100486.20
2023-03-29T15:04:10.346Z,100489.14
2023-03-29T15:06:25.669Z,100478.88
2023-03-29T15:08:45.784Z,100469.51
2023-03-29T15:11:14.253Z,100473.43
2023-03-29T15:13:27.554Z,100475.09
2023-03-29T15:15:40.184Z,100477.30
2023-03-29T15:17:53.703Z,100467.29
2023-03-29T15:20:12.880Z,100466.95
2023-03-29T15:22:33.202Z,100465.95
2023-03-29T15:24:48.724Z,100461.88
2023-03-29T15:27:15.386Z,100466.92
2023-03-29T15:29:43.146Z,100473.48
2023-03-29T15:31:57.612Z,100479.37
2023-03-29T15:34:13.263Z,100477.44
2023-03-29T15:36:27.124Z,100486.66
2023-03-29T15:38:44.576Z,100479.23
2023-03-29T15:40:59.009Z,100481.99
2023-03-29T15:43:12.546Z,100480.60
2023-03-29T15:45:26.258Z,100483.04
2023-03-29T15:47:39.051Z,100486.13
2023-03-29T15:49:51.833Z,100492.66
2023-03-29T15:52:04.933Z,100490.23
2023-03-29T15:54:17.578Z,100485.83
2023-03-29T15:56:37.003Z,100486.95
2023-03-29T15:58:49.917Z,100487.95
2023-03-29T16:01:34.698Z,100493.12
2023-03-29T16:03:48.159Z,100493.23
2023-03-29T16:06:01.107Z,100496.79
2023-03-29T16:08:14.282Z,100502.02
2023-03-29T16:10:26.936Z,100499.51
2023-03-29T16:12:39.512Z,100501.02
2023-03-29T16:14:52.303Z,100499.33
2023-03-29T16:17:05.931Z,100491.16
2023-03-29T16:19:19.423Z,100487.63
2023-03-29T16:21:32.158Z,100479.30
2023-03-29T16:23:46.529Z,100482.91
2023-03-29T16:25:59.421Z,100484.58
2023-03-29T16:28:12.222Z,100483.71
2023-03-29T16:30:25.117Z,100483.36
2023-03-29T16:32:38.936Z,100486.63
2023-03-29T16:34:52.234Z,100483.62
2023-03-29T16:37:04.947Z,100488.87
2023-03-29T16:39:18.278Z,100480.20
2023-03-29T16:41:31.777Z,100479.48
2023-03-29T16:43:44.433Z,100475.05
2023-03-29T16:45:57.424Z,100475.30
2023-03-29T16:48:13.817Z,100477.34
2023-03-29T16:50:26.561Z,100472.45
2023-03-29T16:52:40.094Z,100473.38
2023-03-29T16:54:52.955Z,100471.67
2023-03-29T16:57:07.102Z,100468.27
2023-03-29T16:59:20.010Z,100469.96
2023-03-29T17:01:32.698Z,100474.61
2023-03-29T17:03:45.391Z,100480.48
2023-03-29T17:05:59.147Z,100481.42
2023-03-29T17:08:11.925Z,100480.89
2023-03-29T17:10:25.422Z,100473.95
2023-03-29T17:12:38.578Z,100472.11
2023-03-29T17:14:51.402Z,100473.70
2023-03-29T17:17:04.513Z,100473.81
2023-03-29T17:19:17.154Z,100470.52
2023-03-29T17:21:29.907Z,100470.65
2023-03-29T17:23:42.948Z,100471.98
2023-03-29T17:25:56.374Z,100468.59
2023-03-29T17:28:10.568Z,100464.35
2023-03-29T17:30:23.170Z,100460.66
2023-03-29T17:32:36.453Z,100464.77
2023-03-29T17:34:49.133Z,100461.73
2023-03-29T17:37:03.577Z,100459.46
2023-03-29T17:39:18.674Z,100461.57
2023-03-29T17:41:31.424Z,100464.65
2023-03-29T17:43:44.648Z,100463.09
2023-03-29T17:45:57.475Z,100459.92
2023-03-29T17:48:10.296Z,100460.35
2023-03-29T17:50:23.032Z,100460.96
2023-03-29T17:52:36.229Z,100464.11
2023-03-29T17:54:48.814Z,100464.63
2023-03-29T17:57:01.412Z,100463.48
2023-03-29T17:59:14.228Z,100463.14
2023-03-29T18:01:27.225Z,100467.39
2023-03-29T18:03:40.270Z,100469.29
2023-03-29T18:05:54.202Z,100476.62
2023-03-29T18:08:08.612Z,100474.42
2023-03-29T18:10:21.457Z,100472.45
2023-03-29T18:12:34.178Z,100473.56
2023-03-29T18:14:47.305Z,100477.52
2023-03-29T18:17:00.275Z,100475.00
2023-03-29T18:19:13.801Z,100477.91
2023-03-29T18:21:27.440Z,100479.20
2023-03-29T18:23:42.187Z,100476.58
2023-03-29T18:26:02.901Z,100484.08
2023-03-29T18:28:15.891Z,100482.95
2023-03-29T18:30:28.532Z,100490.92
2023-03-29T18:32:41.274Z,100484.94
2023-03-29T18:34:53.969Z,100479.80
2023-03-29T18:37:07.364Z,100482.01
2023-03-29T18:39:20.005Z,100480.35
2023-03-29T18:41:34.812Z,100481.42
2023-03-29T18:43:47.645Z,100482.52
2023-03-29T18:46:00.569Z,100484.79
2023-03-29T18:48:13.298Z,100487.41
2023-03-29T18:50:26.067Z,100488.13
2023-03-29T18:52:38.992Z,100483.98
2023-03-29T18:54:51.917Z,100485.88
2023-03-29T18:57:04.552Z,100484.89
2023-03-29T18:59:17.556Z,100480.75
2023-03-29T19:01:30.343Z,100475.81
2023-03-29T19:03:43.271Z,100475.98
2023-03-29T19:05:56.281Z,100471.02
2023-03-29T19:08:09.177Z,100468.73
2023-03-29T19:10:21.788Z,100467.89
2023-03-29T19:12:35.401Z,100466.64
2023-03-29T19:14:47.929Z,100469.44
2023-03-29T19:17:00.599Z,100465.66
2023-03-29T19:19:13.152Z,100466.17
2023-03-29T19:21:27.770Z,100466.85
2023-03-29T19:23:40.971Z,100467.05
2023-03-29T19:25:54.450Z,100466.18
2023-03-29T19:28:07.050Z,100467.41
2023-03-29T19:30:23.292Z,100465.75
2023-03-29T19:32:35.988Z,100460.95
2023-03-29T19:34:48.613Z,100465.30
2023-03-29T19:37:01.190Z,100463.43
2023-03-29T19:39:13.961Z,100462.14
2023-03-29T19:41:26.872Z,100458.73
2023-03-29T19:43:39.510Z,100454.42
2023-03-29T19:45:52.074Z,100456.58
2023-03-29T19:48:04.755Z,100456.64
2023-03-29T19:50:17.585Z,100453.20
2023-03-29T19:52:30.690Z,100449.95
2023-03-29T19:54:44.112Z,100449.09
2023-03-29T19:56:57.321Z,100446.02
2023-03-29T19:59:11.220Z,100446.84
2023-03-29T20:01:27.067Z,100441.64
2023-03-29T20:03:42.241Z,100439.48
2023-03-29T20:05:56.900Z,100435.98
2023-03-29T20:08:09.839Z,100438.52
2023-03-29T20:10:22.394Z,100436.58
2023-03-29T20:12:35.509Z,100436.20
2023-03-29T20:14:48.105Z,100432.09
2023-03-29T20:17:00.706Z,100430.05
2023-03-29T20:19:24.472Z,100431.91
2023-03-29T20:21:39.883Z,100431.95
2023-03-29T20:23:52.462Z,100433.48
2023-03-29T20:26:05.137Z,100433.73
2023-03-29T20:28:18.161Z,100433.79
2023-03-29T20:30:30.757Z,100433.56
2023-03-29T20:32:43.460Z,100433.05
2023-03-29T20:34:56.522Z,100432.45
2023-03-29T20:37:09.138Z,100429.73
2023-03-29T20:39:25.162Z,100431.24
2023-03-29T20:41:40.588Z,100425.41
2023-03-29T20:43:58.621Z,100426.34
2023-03-29T20:46:23.825Z,100424.96
2023-03-29T20:48:38.211Z,100421.76
2023-03-29T20:50:51.330Z,100421.64
2023-03-29T20:53:06.284Z,100415.64
2023-03-29T20:55:22.150Z,100413.27
2023-03-29T20:57:35.923Z,100413.51
2023-03-29T20:59:51.235Z,100413.34
2023-03-29T21:02:04.446Z,100412.85
2023-03-29T21:04:17.602Z,100411.67
2023-03-29T21:06:30.201Z,100408.22
2023-03-29T21:08:42.778Z,100405.95
2023-03-29T21:10:56.254Z,100404.90
2023-03-29T21:13:09.818Z,100404.09
2023-03-29T21:15:22.405Z,100398.36
2023-03-29T21:17:35.910Z,100397.45
2023-03-29T21:19:48.560Z,100391.96
2023-03-29T21:22:01.137Z,100385.30
2023-03-29T21:24:13.779Z,100381.48
2023-03-29T21:26:27.012Z,100378.60
2023-03-29T21:28:40.953Z,100378.87
2023-03-29T21:30:53.617Z,100378.90
2023-03-29T21:33:06.594Z,100376.36
2023-03-29T21:35:19.205Z,100370.14
2023-03-29T21:37:31.767Z,100368.46
2023-03-29T21:39:44.289Z,100366.73
2023-03-29T21:41:56.926Z,100364.19
2023-03-29T21:44:09.491Z,100368.21
2023-03-29T21:46:22.225Z,100367.19
2023-03-29T21:48:35.868Z,100363.06
2023-03-29T21:50:50.006Z,100363.80
2023-03-29T21:53:02.629Z,100361.21
2023-03-29T21:55:15.336Z,100362.26
2023-03-29T21:57:28.022Z,100358.92
2023-03-29T21:59:40.717Z,100357.83
2023-03-29T22:01:53.257Z,100357.19
2023-03-29T22:04:05.882Z,100351.44
2023-03-29T22:06:18.624Z,100344.54
2023-03-29T22:08:31.397Z,100343.54
2023-03-29T22:10:44.002Z,100343.55
2023-03-29T22:12:57.002Z,100336.65
2023-03-29T22:15:13.442Z,100333.49
2023-03-29T22:17:26.653Z,100327.71
2023-03-29T22:19:39.565Z,100329.36
2023-03-29T22:21:52.495Z,100333.06
2023-03-29T22:24:05.918Z,100329.87
2023-03-29T22:26:20.052Z,100331.19
2023-03-29T22:28:33.933Z,100325.14
2023-03-29T22:30:46.579Z,100319.27
2023-03-29T22:32:59.118Z,100312.66
2023-03-29T22:35:11.757Z,100310.73
2023-03-29T22:37:24.571Z,100310.92
2023-03-29T22:39:37.379Z,100307.10
2023-03-29T22:41:50.028Z,100309.75
2023-03-29T22:44:02.692Z,100305.84
2023-03-29T22:46:15.428Z,100311.21
2023-03-29T22:48:28.052Z,100307.95
2023-03-29T22:50:42.877Z,100309.21
2023-03-29T22:52:55.947Z,100307.15
2023-03-29T22:55:09.016Z,100304.80
2023-03-29T22:57:21.630Z,100300.95
2023-03-29T22:59:34.224Z,100297.10
2023-03-29T23:01:48.160Z,100292.36
2023-03-29T23:04:00.902Z,100295.88
2023-03-29T23:06:13.464Z,100294.40
2023-03-29T23:08:26.155Z,100289.48
2023-03-29T23:10:38.710Z,100286.77
2023-03-29T23:12:51.251Z,100285.11
2023-03-29T23:15:06.265Z,100281.76
2023-03-29T23:17:19.276Z,100282.52
2023-03-29T23:19:32.029Z,100279.77
2023-03-29T23:21:44.594Z,100278.39
2023-03-29T23:23:57.459Z,100278.58
2023-03-29T23:26:10.415Z,100279.28
2023-03-29T23:28:27.155Z,100276.42
2023-03-29T23:30:40.818Z,100275.88
2023-03-29T23:32:53.745Z,100280.17
2023-03-29T23:35:07.090Z,100278.21
2023-03-29T23:37:19.656Z,100274.16
2023-03-29T23:39:32.362Z,100274.45
2023-03-29T23:41:44.961Z,100274.05
2023-03-29T23:43:57.632Z,100272.50
2023-03-29T23:46:16.303Z,100273.20
2023-03-29T23:48:29.472Z,100268.90
2023-03-29T23:50:46.168Z,100269.54
2023-03-29T23:52:58.970Z,100265.08
2023-03-29T23:55:14.601Z,100264.55
2023-03-29T23:57:28.240Z,100263.84
2023-03-29T23:59:40.982Z,100264.05
